createdAt,value
2019-01-18T00:01:37.769Z,100.00
2019-01-18T00:04:08.355Z,100.00
2019-01-18T00:06:39.127Z,100.00
2019-01-18T00:09:12.225Z,100.00
2019-01-18T00:11:42.836Z,100.00
2019-01-18T00:14:13.487Z,100.00
2019-01-18T00:16:44.228Z,100.00
2019-01-18T00:19:15.074Z,100.00
2019-01-18T00:24:57.912Z,100.00
2019-01-18T00:33:27.557Z,100.00
2019-01-18T00:36:17.026Z,100.00
2019-01-18T00:38:47.460Z,100.00
2019-01-18T00:44:27.503Z,100.00
2019-01-18T00:47:17.019Z,100.00
2019-01-18T00:49:47.618Z,100.00
2019-01-18T00:52:56.327Z,100.00
2019-01-18T01:01:38.189Z,100.00
2019-01-18T01:04:08.645Z,100.00
2019-01-18T01:06:39.044Z,100.00
2019-01-18T01:15:51.895Z,100.00
2019-01-18T01:18:22.510Z,100.00
2019-01-18T01:24:16.015Z,100.00
2019-01-18T01:27:12.001Z,100.00
2019-01-18T01:29:43.986Z,100.00
2019-01-18T01:32:14.445Z,100.00
2019-01-18T01:34:58.091Z,100.00
2019-01-18T01:37:28.556Z,100.00
2019-01-18T01:40:51.913Z,100.00
2019-01-18T01:46:37.474Z,100.00
2019-01-18T01:49:08.196Z,100.00
2019-01-18T01:51:57.984Z,100.00
2019-01-18T01:54:49.043Z,100.00
2019-01-18T01:57:40.140Z,100.00
2019-01-18T02:00:33.363Z,100.00
2019-01-18T02:03:24.576Z,100.00
2019-01-18T02:08:58.007Z,100.00
2019-01-18T02:17:34.018Z,100.00
2019-01-18T02:20:15.847Z,100.00
2019-01-18T02:22:46.830Z,100.00
2019-01-18T02:25:17.994Z,100.00
2019-01-18T02:27:51.008Z,100.00
2019-01-18T02:30:24.109Z,100.00
2019-01-18T02:41:09.451Z,100.00
2019-01-18T02:43:39.840Z,100.00
2019-01-18T02:48:56.079Z,100.00
2019-01-18T02:51:26.689Z,100.00
2019-01-18T02:53:57.277Z,100.00
2019-01-18T02:56:46.735Z,100.00
2019-01-18T03:02:39.278Z,100.00
2019-01-18T03:08:13.808Z,100.00
2019-01-18T03:16:47.323Z,100.00
2019-01-18T03:22:38.970Z,100.00
2019-01-18T03:25:14.480Z,100.00
2019-01-18T03:28:03.704Z,100.00
2019-01-18T03:30:34.224Z,100.00
2019-01-18T03:36:08.203Z,100.00
2019-01-18T03:41:41.417Z,100.00
2019-01-18T03:44:12.057Z,100.00
2019-01-18T03:52:27.668Z,100.00
2019-01-18T03:54:58.195Z,100.00
2019-01-18T04:00:52.310Z,100.00
2019-01-18T04:03:43.416Z,100.00
2019-01-18T04:06:13.871Z,100.00
2019-01-18T04:08:45.344Z,100.00
2019-01-18T04:11:34.837Z,100.00
2019-01-18T04:17:10.193Z,100.00
2019-01-18T04:19:40.668Z,100.00
2019-01-18T04:22:14.210Z,100.00
2019-01-18T04:27:49.628Z,100.00
2019-01-18T04:30:33.045Z,100.00
2019-01-18T04:33:21.762Z,100.00
2019-01-18T04:39:08.883Z,100.00
2019-01-18T04:44:31.077Z,100.00
2019-01-18T04:47:22.388Z,100.00
2019-01-18T04:52:37.296Z,100.00
2019-01-18T04:55:30.007Z,100.00
2019-01-18T05:03:53.706Z,100.00
2019-01-18T05:06:24.250Z,100.00
2019-01-18T05:09:21.923Z,100.00
2019-01-18T05:12:12.843Z,100.00
2019-01-18T05:14:43.333Z,100.00
2019-01-18T05:17:32.605Z,100.00
2019-01-18T05:20:22.023Z,100.00
2019-01-18T05:26:13.752Z,100.00
2019-01-18T05:31:47.855Z,100.00
2019-01-18T05:34:18.845Z,100.00
2019-01-18T05:36:49.963Z,100.00
2019-01-18T05:39:41.526Z,100.00
2019-01-18T05:42:12.580Z,100.00
2019-01-18T05:47:59.306Z,100.00
2019-01-18T05:50:31.490Z,100.00
2019-01-18T05:56:23.317Z,100.00
2019-01-18T05:58:54.042Z,100.00
2019-01-18T06:01:28.262Z,100.00
2019-01-18T06:03:59.513Z,100.00
2019-01-18T06:09:33.579Z,100.00
2019-01-18T06:12:43.461Z,100.00
2019-01-18T06:15:27.522Z,100.00
2019-01-18T06:17:58.088Z,100.00
2019-01-18T06:20:39.932Z,100.00
2019-01-18T06:23:10.733Z,100.00
2019-01-18T06:25:41.170Z,100.00
2019-01-18T06:28:11.836Z,100.00
2019-01-18T06:30:42.391Z,100.00
2019-01-18T06:33:34.259Z,100.00
2019-01-18T06:39:46.000Z,100.00
2019-01-18T06:42:16.782Z,100.00
2019-01-18T06:48:00.999Z,100.00
2019-01-18T06:53:36.265Z,100.00
2019-01-18T06:56:06.733Z,100.00
2019-01-18T07:02:02.880Z,100.00
2019-01-18T07:10:38.845Z,100.00
2019-01-18T07:16:23.513Z,100.00
2019-01-18T07:18:53.894Z,100.00
2019-01-18T07:22:02.520Z,100.00
2019-01-18T07:24:33.334Z,100.00
2019-01-18T07:27:05.456Z,100.00
2019-01-18T07:32:31.253Z,100.00
2019-01-18T07:35:01.906Z,100.00
2019-01-18T07:40:34.443Z,100.00
2019-01-18T07:43:05.024Z,100.00
2019-01-18T07:48:39.333Z,100.00
2019-01-18T07:51:10.867Z,100.00
2019-01-18T07:53:41.773Z,100.00
2019-01-18T07:56:33.496Z,100.00
2019-01-18T07:59:04.173Z,100.00
2019-01-18T08:10:41.701Z,100.00
2019-01-18T08:13:31.160Z,100.00
2019-01-18T08:16:21.070Z,100.00
2019-01-18T08:24:37.121Z,100.00
2019-01-18T08:27:07.568Z,100.00
2019-01-18T08:29:50.085Z,100.00
2019-01-18T08:32:31.836Z,100.00
2019-01-18T08:35:02.485Z,100.00
2019-01-18T08:37:33.000Z,100.00
2019-01-18T08:40:03.616Z,100.00
2019-01-18T08:42:34.018Z,100.00
2019-01-18T08:45:06.357Z,100.00
2019-01-18T08:47:37.061Z,100.00
2019-01-18T08:50:10.726Z,100.00
2019-01-18T08:52:41.127Z,100.00
2019-01-18T08:55:51.069Z,100.00
2019-01-18T08:58:21.962Z,100.00
2019-01-18T09:00:52.514Z,100.00
2019-01-18T09:03:23.588Z,100.00
2019-01-18T09:05:56.369Z,100.00
2019-01-18T09:09:06.151Z,100.00
2019-01-18T09:11:38.014Z,100.00
2019-01-18T09:17:11.367Z,100.00
2019-01-18T09:19:43.968Z,100.00
2019-01-18T09:22:16.527Z,100.00
2019-01-18T09:24:47.173Z,100.00
2019-01-18T09:27:30.808Z,100.00
2019-01-18T09:30:01.298Z,100.00
2019-01-18T09:32:32.237Z,100.00
2019-01-18T09:44:10.941Z,100.00
2019-01-18T09:47:00.353Z,100.00
2019-01-18T09:49:49.752Z,100.00
2019-01-18T09:52:20.360Z,100.00
2019-01-18T09:54:50.990Z,100.00
2019-01-18T09:57:21.965Z,100.00
2019-01-18T10:00:13.028Z,100.00
2019-01-18T10:02:45.932Z,100.00
2019-01-18T10:10:44.335Z,100.00
2019-01-18T10:15:56.936Z,100.00
2019-01-18T10:18:27.389Z,100.00
2019-01-18T10:23:52.519Z,100.00
2019-01-18T10:26:39.739Z,100.00
2019-01-18T10:41:33.417Z,100.00
2019-01-18T10:46:49.460Z,100.00
2019-01-18T10:49:39.392Z,100.00
2019-01-18T10:52:09.885Z,100.00
2019-01-18T10:54:40.302Z,100.00
2019-01-18T10:57:10.735Z,100.00
2019-01-18T11:00:00.431Z,100.00
2019-01-18T11:02:30.905Z,100.00
2019-01-18T11:05:01.322Z,100.00
2019-01-18T11:07:31.831Z,100.00
2019-01-18T11:10:21.202Z,100.00
2019-01-18T11:13:13.635Z,100.00
2019-01-18T11:15:54.831Z,100.00
2019-01-18T11:18:25.202Z,100.00
2019-01-18T11:21:03.207Z,100.00
2019-01-18T11:23:33.740Z,100.00
2019-01-18T11:34:45.923Z,100.00
2019-01-18T11:37:18.646Z,100.00
2019-01-18T11:42:51.767Z,100.00
2019-01-18T11:45:22.651Z,100.00
2019-01-18T11:47:53.124Z,100.00
2019-01-18T11:53:30.393Z,100.00
2019-01-18T11:56:22.363Z,100.00
2019-01-18T12:01:57.431Z,97.89
2019-01-18T12:04:50.430Z,98.23
2019-01-18T12:07:23.999Z,97.75
2019-01-18T12:09:54.411Z,95.56
2019-01-18T12:15:48.028Z,95.80
2019-01-18T12:18:18.567Z,95.89
2019-01-18T12:23:47.315Z,96.28
2019-01-18T12:26:17.976Z,96.33
2019-01-18T12:28:48.540Z,96.47
2019-01-18T12:37:05.548Z,84.12
2019-01-18T12:39:36.188Z,77.65
2019-01-18T12:42:06.618Z,75.19
2019-01-18T12:44:37.069Z,71.82
2019-01-18T12:47:07.776Z,72.41
2019-01-18T12:49:38.404Z,73.88
2019-01-18T12:52:11.245Z,71.79
2019-01-18T12:54:41.717Z,67.98
2019-01-18T12:57:32.822Z,68.12
2019-01-18T13:00:03.260Z,67.88
2019-01-18T13:05:47.911Z,69.40
2019-01-18T13:08:18.876Z,69.72
2019-01-18T13:10:49.398Z,68.37
2019-01-18T13:13:19.874Z,67.95
2019-01-18T13:16:28.504Z,66.97
2019-01-18T13:19:20.009Z,65.53
2019-01-18T13:21:50.919Z,63.86
2019-01-18T13:24:21.517Z,63.45
2019-01-18T13:26:52.034Z,64.19
2019-01-18T13:32:57.791Z,68.30
2019-01-18T13:35:28.206Z,68.55
2019-01-18T13:37:58.914Z,67.00
2019-01-18T13:40:50.002Z,67.52
2019-01-18T13:46:14.112Z,72.17
2019-01-18T13:51:50.536Z,75.66
2019-01-18T13:54:41.493Z,79.46
2019-01-18T14:00:14.230Z,81.87
2019-01-18T14:02:48.633Z,83.41
2019-01-18T14:08:26.168Z,86.66
2019-01-18T14:14:11.622Z,88.24
2019-01-18T14:31:30.125Z,90.19
2019-01-18T14:34:00.839Z,90.63
2019-01-18T14:36:31.952Z,91.21
2019-01-18T14:42:04.910Z,92.10
2019-01-18T14:50:41.623Z,92.27
2019-01-18T14:53:43.029Z,92.44
2019-01-18T14:56:13.540Z,93.30
2019-01-18T15:02:04.454Z,93.97
2019-01-18T15:04:35.121Z,94.48
2019-01-18T15:07:05.624Z,95.16
2019-01-18T15:09:36.278Z,95.77
2019-01-18T15:12:06.762Z,96.57
2019-01-18T15:18:01.482Z,96.69
2019-01-18T15:20:32.419Z,96.37
2019-01-18T15:28:46.722Z,96.90
2019-01-18T15:31:17.195Z,97.54
2019-01-18T15:33:47.639Z,97.03
2019-01-18T15:39:31.850Z,97.25
2019-01-18T15:48:27.427Z,96.09
2019-01-18T15:51:17.037Z,96.29
2019-01-18T15:54:32.132Z,96.40
2019-01-18T15:57:02.649Z,96.28
2019-01-18T16:02:24.319Z,96.61
2019-01-18T16:04:54.972Z,96.37
2019-01-18T16:07:25.341Z,96.75
2019-01-18T16:16:22.631Z,97.13
2019-01-18T16:18:53.856Z,97.64
2019-01-18T16:24:05.933Z,98.22
2019-01-18T16:26:36.413Z,97.98
2019-01-18T16:29:06.838Z,97.85
2019-01-18T16:31:37.358Z,97.25
2019-01-18T16:34:07.711Z,97.73
2019-01-18T16:36:38.206Z,97.70
2019-01-18T16:45:17.981Z,97.77
2019-01-18T16:48:07.590Z,98.25
2019-01-18T16:50:38.120Z,98.60
2019-01-18T16:55:57.833Z,99.16
2019-01-18T17:04:34.468Z,99.55
2019-01-18T17:07:04.919Z,99.63
2019-01-18T17:09:55.922Z,99.86
2019-01-18T17:12:26.516Z,99.80
2019-01-18T17:15:15.807Z,99.72
2019-01-18T17:17:46.160Z,99.94
2019-01-18T17:20:19.408Z,100.00
2019-01-18T17:22:50.900Z,100.00
2019-01-18T17:25:40.311Z,100.00
2019-01-18T17:28:11.055Z,100.00
2019-01-18T17:30:42.662Z,100.00
2019-01-18T17:33:37.132Z,100.00
2019-01-18T17:40:00.490Z,100.00
2019-01-18T17:42:53.020Z,100.00
2019-01-18T17:46:01.648Z,100.00
2019-01-18T17:49:10.176Z,100.00
2019-01-18T17:52:18.808Z,100.00
2019-01-18T17:55:19.837Z,100.00
2019-01-18T17:58:28.364Z,100.00
2019-01-18T18:01:38.190Z,100.00
2019-01-18T18:04:47.223Z,100.00
2019-01-18T18:07:56.550Z,100.00
2019-01-18T18:10:51.922Z,100.00
2019-01-18T18:14:02.321Z,100.00
2019-01-18T18:16:57.166Z,100.00
2019-01-18T18:20:05.801Z,100.00
2019-01-18T18:23:14.504Z,100.00
2019-01-18T18:26:07.988Z,100.00
2019-01-18T18:29:16.520Z,100.00
2019-01-18T18:32:25.381Z,100.00
2019-01-18T18:35:34.038Z,100.00
2019-01-18T18:38:42.639Z,100.00
2019-01-18T18:41:51.152Z,99.87
2019-01-18T18:44:59.659Z,99.67
2019-01-18T18:48:08.260Z,99.37
2019-01-18T18:51:16.878Z,99.08
2019-01-18T18:54:25.441Z,98.79
2019-01-18T18:57:51.198Z,99.07
2019-01-18T19:00:59.805Z,98.81
2019-01-18T19:04:03.758Z,98.83
2019-01-18T19:06:59.079Z,98.72
2019-01-18T19:10:07.698Z,98.84
2019-01-18T19:13:16.586Z,99.21
2019-01-18T19:16:10.387Z,99.20
2019-01-18T19:19:19.489Z,99.08
2019-01-18T19:22:05.859Z,99.37
2019-01-18T19:25:14.477Z,99.09
2019-01-18T19:28:23.340Z,99.09
2019-01-18T19:31:32.105Z,99.14
2019-01-18T19:34:40.575Z,99.37
2019-01-18T19:37:49.278Z,99.46
2019-01-18T19:40:57.841Z,99.59
2019-01-18T19:44:06.932Z,99.87
2019-01-18T19:46:48.853Z,99.73
2019-01-18T19:49:58.841Z,100.00
2019-01-18T19:52:53.552Z,100.00
2019-01-18T19:56:01.734Z,100.00
2019-01-18T19:58:58.356Z,100.00
2019-01-18T20:02:07.454Z,100.00
2019-01-18T20:05:16.100Z,99.93
2019-01-18T20:08:24.706Z,99.89
2019-01-18T20:14:55.094Z,99.86
2019-01-18T20:18:03.824Z,99.86
2019-01-18T20:24:22.951Z,99.46
2019-01-18T20:27:33.574Z,99.48
2019-01-18T20:30:42.479Z,99.20
2019-01-18T20:33:51.232Z,98.98
2019-01-18T20:40:05.608Z,98.10
2019-01-18T20:43:14.243Z,98.28
2019-01-18T20:46:22.801Z,98.15
2019-01-18T20:49:32.889Z,98.10
2019-01-18T20:52:41.812Z,98.01
2019-01-18T20:56:09.342Z,97.81
2019-01-18T20:59:17.890Z,97.47
2019-01-18T21:02:26.522Z,97.39
2019-01-18T21:05:09.383Z,97.29
2019-01-18T21:08:17.936Z,97.47
2019-01-18T21:11:26.527Z,97.45
2019-01-18T21:14:35.047Z,97.53
2019-01-18T21:17:49.726Z,97.13
2019-01-18T21:20:58.632Z,97.00
2019-01-18T21:27:13.383Z,97.00
2019-01-18T21:33:32.155Z,97.20
2019-01-18T21:36:41.143Z,97.31
2019-01-18T21:39:49.841Z,97.66
2019-01-18T21:42:58.346Z,97.84
2019-01-18T21:46:06.891Z,98.05
2019-01-18T21:49:16.112Z,98.04
2019-01-18T21:52:20.767Z,97.49
2019-01-18T21:55:29.604Z,97.39
2019-01-18T21:58:21.941Z,97.24
2019-01-18T22:01:05.328Z,96.98
2019-01-18T22:04:14.026Z,97.01
2019-01-18T22:07:13.887Z,97.34
2019-01-18T22:10:12.487Z,97.22
2019-01-18T22:16:38.329Z,97.53
2019-01-18T22:19:46.898Z,96.96
2019-01-18T22:22:55.438Z,96.91
2019-01-18T22:26:04.076Z,96.75
2019-01-18T22:29:01.111Z,97.02
2019-01-18T22:35:32.463Z,96.70
2019-01-18T22:38:25.886Z,96.62
2019-01-18T22:44:56.485Z,96.10
2019-01-18T22:48:05.620Z,96.44
2019-01-18T22:51:14.313Z,96.27
2019-01-18T22:54:22.952Z,95.97
2019-01-18T22:57:31.608Z,95.50
2019-01-18T23:00:59.022Z,95.29
2019-01-18T23:03:53.215Z,95.42
2019-01-18T23:09:56.568Z,95.56
2019-01-18T23:13:05.072Z,95.88
2019-01-18T23:16:13.623Z,96.34
2019-01-18T23:19:22.107Z,96.70
2019-01-18T23:22:29.812Z,97.11
2019-01-18T23:28:52.119Z,97.02
2019-01-18T23:31:44.639Z,96.96
2019-01-18T23:37:28.494Z,96.70
2019-01-18T23:40:36.217Z,96.58
2019-01-18T23:43:43.713Z,96.72
2019-01-18T23:46:51.429Z,96.76
2019-01-18T23:49:59.194Z,96.82
2019-01-18T23:53:06.999Z,96.95
2019-01-18T23:56:14.352Z,97.09
2019-01-18T23:59:07.903Z,97.22
